sensor_id;sensor_type;location;lat;lon;timestamp;temperature;humidity
14008;DHT22;61651;45.508;12.232;2023-09-08T00:00:32;24.70;93.00
14008;DHT22;61651;45.508;12.232;2023-09-08T00:03:34;24.60;93.00
14008;DHT22;61651;45.508;12.232;2023-09-08T00:06:37;24.60;93.00
14008;DHT22;61651;45.508;12.232;2023-09-08T00:09:39;24.60;93.00
14008;DHT22;61651;45.508;12.232;2023-09-08T00:12:42;24.60;92.90
14008;DHT22;61651;45.508;12.232;2023-09-08T00:15:43;24.50;93.00
14008;DHT22;61651;45.508;12.232;2023-09-08T00:18:45;24.50;92.90
14008;DHT22;61651;45.508;12.232;2023-09-08T00:21:49;24.50;92.90
14008;DHT22;61651;45.508;12.232;2023-09-08T00:24:51;24.50;92.70
14008;DHT22;61651;45.508;12.232;2023-09-08T00:27:53;24.40;92.80
14008;DHT22;61651;45.508;12.232;2023-09-08T00:30:55;24.40;92.90
14008;DHT22;61651;45.508;12.232;2023-09-08T00:33:57;24.40;92.80
14008;DHT22;61651;45.508;12.232;2023-09-08T00:37:00;24.40;92.70
14008;DHT22;61651;45.508;12.232;2023-09-08T00:40:08;24.40;92.70
14008;DHT22;61651;45.508;12.232;2023-09-08T00:43:10;24.30;92.60
14008;DHT22;61651;45.508;12.232;2023-09-08T00:46:12;24.30;92.60
14008;DHT22;61651;45.508;12.232;2023-09-08T00:49:14;24.30;92.90
14008;DHT22;61651;45.508;12.232;2023-09-08T00:52:19;24.30;93.00
14008;DHT22;61651;45.508;12.232;2023-09-08T00:55:21;24.30;93.10
14008;DHT22;61651;45.508;12.232;2023-09-08T00:58:23;24.20;93.00
14008;DHT22;61651;45.508;12.232;2023-09-08T01:01:25;24.20;93.00
14008;DHT22;61651;45.508;12.232;2023-09-08T01:04:27;24.10;93.00
14008;DHT22;61651;45.508;12.232;2023-09-08T01:07:31;24.10;93.10
14008;DHT22;61651;45.508;12.232;2023-09-08T01:10:34;24.10;93.20
14008;DHT22;61651;45.508;12.232;2023-09-08T01:13:37;24.10;93.10
14008;DHT22;61651;45.508;12.232;2023-09-08T01:16:39;24.10;93.10
14008;DHT22;61651;45.508;12.232;2023-09-08T01:19:43;24.10;93.10
14008;DHT22;61651;45.508;12.232;2023-09-08T01:22:58;24.00;93.10
14008;DHT22;61651;45.508;12.232;2023-09-08T01:26:08;24.00;92.80
14008;DHT22;61651;45.508;12.232;2023-09-08T01:29:13;24.00;92.90
14008;DHT22;61651;45.508;12.232;2023-09-08T01:32:17;24.00;92.90
14008;DHT22;61651;45.508;12.232;2023-09-08T01:35:19;24.00;92.90
14008;DHT22;61651;45.508;12.232;2023-09-08T01:38:23;23.90;92.80
14008;DHT22;61651;45.508;12.232;2023-09-08T01:41:27;23.90;92.90
14008;DHT22;61651;45.508;12.232;2023-09-08T01:44:29;23.90;93.00
14008;DHT22;61651;45.508;12.232;2023-09-08T01:47:31;23.90;92.90
14008;DHT22;61651;45.508;12.232;2023-09-08T01:50:33;23.90;92.80
14008;DHT22;61651;45.508;12.232;2023-09-08T01:53:35;23.90;92.70
14008;DHT22;61651;45.508;12.232;2023-09-08T01:56:38;23.90;92.80
14008;DHT22;61651;45.508;12.232;2023-09-08T01:59:40;23.90;92.90
14008;DHT22;61651;45.508;12.232;2023-09-08T02:02:42;23.90;93.00
14008;DHT22;61651;45.508;12.232;2023-09-08T02:05:45;23.80;92.90
14008;DHT22;61651;45.508;12.232;2023-09-08T02:08:47;23.80;93.10
14008;DHT22;61651;45.508;12.232;2023-09-08T02:11:50;23.80;93.30
14008;DHT22;61651;45.508;12.232;2023-09-08T02:14:52;23.70;93.50
14008;DHT22;61651;45.508;12.232;2023-09-08T02:17:54;23.70;93.50
14008;DHT22;61651;45.508;12.232;2023-09-08T02:20:56;23.70;93.60
14008;DHT22;61651;45.508;12.232;2023-09-08T02:23:58;23.60;93.70
14008;DHT22;61651;45.508;12.232;2023-09-08T02:27:02;23.60;93.90
14008;DHT22;61651;45.508;12.232;2023-09-08T02:30:05;23.60;93.80
14008;DHT22;61651;45.508;12.232;2023-09-08T02:33:07;23.50;93.70
14008;DHT22;61651;45.508;12.232;2023-09-08T02:36:09;23.40;93.80
14008;DHT22;61651;45.508;12.232;2023-09-08T02:39:11;23.40;93.70
14008;DHT22;61651;45.508;12.232;2023-09-08T02:42:15;23.40;93.80
14008;DHT22;61651;45.508;12.232;2023-09-08T02:45:17;23.40;93.90
14008;DHT22;61651;45.508;12.232;2023-09-08T02:48:19;23.40;94.20
14008;DHT22;61651;45.508;12.232;2023-09-08T02:51:21;23.40;94.30
14008;DHT22;61651;45.508;12.232;2023-09-08T02:54:23;23.30;94.40
14008;DHT22;61651;45.508;12.232;2023-09-08T02:57:26;23.30;94.40
14008;DHT22;61651;45.508;12.232;2023-09-08T03:00:28;23.30;94.50
14008;DHT22;61651;45.508;12.232;2023-09-08T03:03:30;23.20;94.30
14008;DHT22;61651;45.508;12.232;2023-09-08T03:06:35;23.20;94.40
14008;DHT22;61651;45.508;12.232;2023-09-08T03:09:37;23.20;94.60
14008;DHT22;61651;45.508;12.232;2023-09-08T03:12:40;23.20;94.60
14008;DHT22;61651;45.508;12.232;2023-09-08T03:15:42;23.20;94.50
14008;DHT22;61651;45.508;12.232;2023-09-08T03:18:44;23.20;94.50
14008;DHT22;61651;45.508;12.232;2023-09-08T03:21:46;23.10;94.40
14008;DHT22;61651;45.508;12.232;2023-09-08T03:24:48;23.10;94.50
14008;DHT22;61651;45.508;12.232;2023-09-08T03:27:51;23.00;94.40
14008;DHT22;61651;45.508;12.232;2023-09-08T03:30:53;23.00;94.40
14008;DHT22;61651;45.508;12.232;2023-09-08T03:33:55;23.00;94.40
14008;DHT22;61651;45.508;12.232;2023-09-08T03:36:57;23.00;94.40
14008;DHT22;61651;45.508;12.232;2023-09-08T03:39:59;23.10;94.30
14008;DHT22;61651;45.508;12.232;2023-09-08T03:43:03;23.10;94.40
14008;DHT22;61651;45.508;12.232;2023-09-08T03:46:05;23.10;94.60
14008;DHT22;61651;45.508;12.232;2023-09-08T03:49:07;23.10;94.70
14008;DHT22;61651;45.508;12.232;2023-09-08T03:52:09;23.10;94.50
14008;DHT22;61651;45.508;12.232;2023-09-08T03:55:11;23.00;94.50
14008;DHT22;61651;45.508;12.232;2023-09-08T03:58:15;23.00;94.50
14008;DHT22;61651;45.508;12.232;2023-09-08T04:01:17;23.00;94.50
14008;DHT22;61651;45.508;12.232;2023-09-08T04:04:19;23.00;95.00
14008;DHT22;61651;45.508;12.232;2023-09-08T04:07:21;23.00;94.70
14008;DHT22;61651;45.508;12.232;2023-09-08T04:10:23;23.00;94.70
14008;DHT22;61651;45.508;12.232;2023-09-08T04:13:26;23.00;94.60
14008;DHT22;61651;45.508;12.232;2023-09-08T04:16:28;22.90;94.60
14008;DHT22;61651;45.508;12.232;2023-09-08T04:19:30;22.90;94.60
14008;DHT22;61651;45.508;12.232;2023-09-08T04:22:32;22.90;94.60
14008;DHT22;61651;45.508;12.232;2023-09-08T04:25:34;23.00;94.60
14008;DHT22;61651;45.508;12.232;2023-09-08T04:28:38;22.90;94.70
14008;DHT22;61651;45.508;12.232;2023-09-08T04:31:40;22.90;94.80
14008;DHT22;61651;45.508;12.232;2023-09-08T04:34:42;22.90;94.80
14008;DHT22;61651;45.508;12.232;2023-09-08T04:37:44;22.90;94.90
14008;DHT22;61651;45.508;12.232;2023-09-08T04:40:46;22.80;94.90
14008;DHT22;61651;45.508;12.232;2023-09-08T04:43:50;22.90;94.90
14008;DHT22;61651;45.508;12.232;2023-09-08T04:46:52;22.90;94.90
14008;DHT22;61651;45.508;12.232;2023-09-08T04:49:54;22.80;94.80
14008;DHT22;61651;45.508;12.232;2023-09-08T04:52:56;22.80;94.90
14008;DHT22;61651;45.508;12.232;2023-09-08T04:55:58;22.80;95.00
14008;DHT22;61651;45.508;12.232;2023-09-08T04:59:01;22.80;95.00
14008;DHT22;61651;45.508;12.232;2023-09-08T05:02:03;22.80;95.00
14008;DHT22;61651;45.508;12.232;2023-09-08T05:05:06;22.80;95.10
14008;DHT22;61651;45.508;12.232;2023-09-08T05:08:08;22.80;95.20
14008;DHT22;61651;45.508;12.232;2023-09-08T05:11:10;22.80;95.10
14008;DHT22;61651;45.508;12.232;2023-09-08T05:14:13;22.80;95.30
14008;DHT22;61651;45.508;12.232;2023-09-08T05:17:15;22.80;95.40
14008;DHT22;61651;45.508;12.232;2023-09-08T05:20:17;22.80;95.30
14008;DHT22;61651;45.508;12.232;2023-09-08T05:23:19;22.90;95.30
14008;DHT22;61651;45.508;12.232;2023-09-08T05:26:21;22.90;95.30
14008;DHT22;61651;45.508;12.232;2023-09-08T05:29:25;22.90;95.30
14008;DHT22;61651;45.508;12.232;2023-09-08T05:32:27;22.90;95.40
14008;DHT22;61651;45.508;12.232;2023-09-08T05:35:29;22.90;95.40
14008;DHT22;61651;45.508;12.232;2023-09-08T05:38:31;23.00;95.40
14008;DHT22;61651;45.508;12.232;2023-09-08T05:41:33;23.00;95.50
14008;DHT22;61651;45.508;12.232;2023-09-08T05:44:36;23.00;95.50
14008;DHT22;61651;45.508;12.232;2023-09-08T05:47:39;23.10;95.60
14008;DHT22;61651;45.508;12.232;2023-09-08T05:50:41;23.20;95.60
14008;DHT22;61651;45.508;12.232;2023-09-08T05:53:43;23.20;95.50
14008;DHT22;61651;45.508;12.232;2023-09-08T05:56:45;23.20;95.60
14008;DHT22;61651;45.508;12.232;2023-09-08T05:59:48;23.30;95.60
14008;DHT22;61651;45.508;12.232;2023-09-08T06:02:50;23.30;95.60
14008;DHT22;61651;45.508;12.232;2023-09-08T06:05:52;23.40;95.60
14008;DHT22;61651;45.508;12.232;2023-09-08T06:08:54;23.50;95.80
14008;DHT22;61651;45.508;12.232;2023-09-08T06:11:56;23.50;95.70
14008;DHT22;61651;45.508;12.232;2023-09-08T06:15:01;23.60;95.70
14008;DHT22;61651;45.508;12.232;2023-09-08T06:18:04;23.60;95.70
14008;DHT22;61651;45.508;12.232;2023-09-08T06:21:06;23.70;95.70
14008;DHT22;61651;45.508;12.232;2023-09-08T06:24:08;23.80;95.70
14008;DHT22;61651;45.508;12.232;2023-09-08T06:27:10;23.90;95.60
14008;DHT22;61651;45.508;12.232;2023-09-08T06:30:15;24.00;95.50
14008;DHT22;61651;45.508;12.232;2023-09-08T06:33:18;24.10;95.50
14008;DHT22;61651;45.508;12.232;2023-09-08T06:36:21;24.10;95.40
14008;DHT22;61651;45.508;12.232;2023-09-08T06:39:25;24.20;95.70
14008;DHT22;61651;45.508;12.232;2023-09-08T06:42:27;24.30;95.60
14008;DHT22;61651;45.508;12.232;2023-09-08T06:45:31;24.40;95.50
14008;DHT22;61651;45.508;12.232;2023-09-08T06:48:33;24.50;95.30
14008;DHT22;61651;45.508;12.232;2023-09-08T06:51:35;24.60;95.40
14008;DHT22;61651;45.508;12.232;2023-09-08T06:54:37;24.70;95.20
14008;DHT22;61651;45.508;12.232;2023-09-08T06:57:39;24.70;94.90
14008;DHT22;61651;45.508;12.232;2023-09-08T07:00:43;24.80;94.70
14008;DHT22;61651;45.508;12.232;2023-09-08T07:03:45;24.90;94.60
14008;DHT22;61651;45.508;12.232;2023-09-08T07:06:47;24.90;94.70
14008;DHT22;61651;45.508;12.232;2023-09-08T07:09:50;25.00;94.70
14008;DHT22;61651;45.508;12.232;2023-09-08T07:12:52;25.10;94.80
14008;DHT22;61651;45.508;12.232;2023-09-08T07:15:56;25.20;94.60
14008;DHT22;61651;45.508;12.232;2023-09-08T07:18:57;25.30;94.70
14008;DHT22;61651;45.508;12.232;2023-09-08T07:22:01;25.30;94.00
14008;DHT22;61651;45.508;12.232;2023-09-08T07:25:04;25.40;94.20
14008;DHT22;61651;45.508;12.232;2023-09-08T07:28:06;25.50;94.40
14008;DHT22;61651;45.508;12.232;2023-09-08T07:31:10;25.60;94.30
14008;DHT22;61651;45.508;12.232;2023-09-08T07:34:12;25.60;93.10
14008;DHT22;61651;45.508;12.232;2023-09-08T07:37:14;25.70;92.80
14008;DHT22;61651;45.508;12.232;2023-09-08T07:40:16;25.80;93.00
14008;DHT22;61651;45.508;12.232;2023-09-08T07:43:18;25.90;92.90
14008;DHT22;61651;45.508;12.232;2023-09-08T07:46:21;26.00;92.80
14008;DHT22;61651;45.508;12.232;2023-09-08T07:49:23;26.10;93.00
14008;DHT22;61651;45.508;12.232;2023-09-08T07:52:25;26.20;93.10
14008;DHT22;61651;45.508;12.232;2023-09-08T07:55:27;26.30;92.90
14008;DHT22;61651;45.508;12.232;2023-09-08T07:58:29;26.40;92.80
14008;DHT22;61651;45.508;12.232;2023-09-08T08:01:33;26.40;92.90
14008;DHT22;61651;45.508;12.232;2023-09-08T08:04:35;26.60;92.70
14008;DHT22;61651;45.508;12.232;2023-09-08T08:07:38;26.60;92.00
14008;DHT22;61651;45.508;12.232;2023-09-08T08:10:41;26.60;91.80
14008;DHT22;61651;45.508;12.232;2023-09-08T08:13:43;26.70;91.50
14008;DHT22;61651;45.508;12.232;2023-09-08T08:16:46;26.70;91.60
14008;DHT22;61651;45.508;12.232;2023-09-08T08:19:49;26.80;91.10
14008;DHT22;61651;45.508;12.232;2023-09-08T08:22:51;26.90;91.30
14008;DHT22;61651;45.508;12.232;2023-09-08T08:25:53;27.00;91.30
14008;DHT22;61651;45.508;12.232;2023-09-08T08:28:55;27.10;90.80
14008;DHT22;61651;45.508;12.232;2023-09-08T08:31:59;27.20;90.90
14008;DHT22;61651;45.508;12.232;2023-09-08T08:35:00;27.30;90.60
14008;DHT22;61651;45.508;12.232;2023-09-08T08:38:05;27.40;90.40
14008;DHT22;61651;45.508;12.232;2023-09-08T08:41:07;27.50;90.40
14008;DHT22;61651;45.508;12.232;2023-09-08T08:44:09;27.60;90.30
14008;DHT22;61651;45.508;12.232;2023-09-08T08:47:13;27.70;90.60
14008;DHT22;61651;45.508;12.232;2023-09-08T08:50:17;27.80;90.70
14008;DHT22;61651;45.508;12.232;2023-09-08T08:53:21;27.90;90.60
14008;DHT22;61651;45.508;12.232;2023-09-08T08:56:23;27.90;90.40
14008;DHT22;61651;45.508;12.232;2023-09-08T08:59:25;28.00;90.80
14008;DHT22;61651;45.508;12.232;2023-09-08T09:02:30;28.10;90.80
14008;DHT22;61651;45.508;12.232;2023-09-08T09:05:33;28.20;90.30
14008;DHT22;61651;45.508;12.232;2023-09-08T09:08:37;28.30;90.50
14008;DHT22;61651;45.508;12.232;2023-09-08T09:11:40;28.50;89.80
14008;DHT22;61651;45.508;12.232;2023-09-08T09:14:45;28.60;90.00
14008;DHT22;61651;45.508;12.232;2023-09-08T09:18:02;28.70;89.10
14008;DHT22;61651;45.508;12.232;2023-09-08T09:21:04;28.80;89.80
14008;DHT22;61651;45.508;12.232;2023-09-08T09:24:06;28.80;89.20
14008;DHT22;61651;45.508;12.232;2023-09-08T09:27:09;28.90;87.80
14008;DHT22;61651;45.508;12.232;2023-09-08T09:30:12;28.90;88.00
14008;DHT22;61651;45.508;12.232;2023-09-08T09:33:15;29.00;87.90
14008;DHT22;61651;45.508;12.232;2023-09-08T09:36:20;29.10;87.70
14008;DHT22;61651;45.508;12.232;2023-09-08T09:39:23;29.20;87.90
14008;DHT22;61651;45.508;12.232;2023-09-08T09:42:27;29.30;87.50
14008;DHT22;61651;45.508;12.232;2023-09-08T09:45:29;29.40;87.80
14008;DHT22;61651;45.508;12.232;2023-09-08T09:48:33;29.40;86.70
14008;DHT22;61651;45.508;12.232;2023-09-08T09:51:42;29.40;86.70
14008;DHT22;61651;45.508;12.232;2023-09-08T09:54:45;29.50;87.80
14008;DHT22;61651;45.508;12.232;2023-09-08T09:57:48;29.60;86.20
14008;DHT22;61651;45.508;12.232;2023-09-08T10:00:51;29.60;86.90
14008;DHT22;61651;45.508;12.232;2023-09-08T10:03:56;29.70;86.20
14008;DHT22;61651;45.508;12.232;2023-09-08T10:06:59;29.90;86.90
14008;DHT22;61651;45.508;12.232;2023-09-08T10:10:01;30.00;86.70
14008;DHT22;61651;45.508;12.232;2023-09-08T10:13:06;30.10;86.80
14008;DHT22;61651;45.508;12.232;2023-09-08T10:16:13;30.20;85.30
14008;DHT22;61651;45.508;12.232;2023-09-08T10:19:18;30.30;85.00
14008;DHT22;61651;45.508;12.232;2023-09-08T10:22:26;30.30;84.40
14008;DHT22;61651;45.508;12.232;2023-09-08T10:25:31;30.40;83.60
14008;DHT22;61651;45.508;12.232;2023-09-08T10:28:38;30.50;83.60
14008;DHT22;61651;45.508;12.232;2023-09-08T10:31:40;30.50;84.40
14008;DHT22;61651;45.508;12.232;2023-09-08T10:34:45;30.70;84.50
14008;DHT22;61651;45.508;12.232;2023-09-08T10:37:47;30.80;84.70
14008;DHT22;61651;45.508;12.232;2023-09-08T10:40:49;30.90;83.90
14008;DHT22;61651;45.508;12.232;2023-09-08T10:43:55;30.90;84.40
14008;DHT22;61651;45.508;12.232;2023-09-08T10:46:58;31.00;83.90
14008;DHT22;61651;45.508;12.232;2023-09-08T10:50:01;31.00;83.20
14008;DHT22;61651;45.508;12.232;2023-09-08T10:53:15;31.10;83.90
14008;DHT22;61651;45.508;12.232;2023-09-08T10:56:17;31.20;82.00
14008;DHT22;61651;45.508;12.232;2023-09-08T10:59:19;31.40;82.40
14008;DHT22;61651;45.508;12.232;2023-09-08T11:02:33;31.60;81.80
14008;DHT22;61651;45.508;12.232;2023-09-08T11:05:37;31.70;79.00
14008;DHT22;61651;45.508;12.232;2023-09-08T11:08:41;31.70;80.50
14008;DHT22;61651;45.508;12.232;2023-09-08T11:11:44;31.50;81.00
14008;DHT22;61651;45.508;12.232;2023-09-08T11:15:05;31.60;81.90
14008;DHT22;61651;45.508;12.232;2023-09-08T11:18:08;31.70;81.40
14008;DHT22;61651;45.508;12.232;2023-09-08T11:21:12;31.80;80.90
14008;DHT22;61651;45.508;12.232;2023-09-08T11:24:14;32.00;81.50
14008;DHT22;61651;45.508;12.232;2023-09-08T11:27:16;32.00;80.90
14008;DHT22;61651;45.508;12.232;2023-09-08T11:30:18;32.10;80.60
14008;DHT22;61651;45.508;12.232;2023-09-08T11:33:21;32.10;79.80
14008;DHT22;61651;45.508;12.232;2023-09-08T11:36:26;32.20;80.00
14008;DHT22;61651;45.508;12.232;2023-09-08T11:39:29;32.30;80.60
14008;DHT22;61651;45.508;12.232;2023-09-08T11:42:31;32.40;81.40
14008;DHT22;61651;45.508;12.232;2023-09-08T11:45:34;32.60;81.10
14008;DHT22;61651;45.508;12.232;2023-09-08T11:48:37;32.70;80.40
14008;DHT22;61651;45.508;12.232;2023-09-08T11:51:40;32.80;80.00
14008;DHT22;61651;45.508;12.232;2023-09-08T11:54:42;32.80;80.10
14008;DHT22;61651;45.508;12.232;2023-09-08T11:57:47;32.90;80.50
14008;DHT22;61651;45.508;12.232;2023-09-08T12:00:50;33.00;80.60
14008;DHT22;61651;45.508;12.232;2023-09-08T12:03:52;33.00;77.90
14008;DHT22;61651;45.508;12.232;2023-09-08T12:06:56;33.10;77.30
14008;DHT22;61651;45.508;12.232;2023-09-08T12:09:58;33.20;76.30
14008;DHT22;61651;45.508;12.232;2023-09-08T12:13:00;33.30;78.80
14008;DHT22;61651;45.508;12.232;2023-09-08T12:16:02;33.40;77.30
14008;DHT22;61651;45.508;12.232;2023-09-08T12:19:04;33.60;77.50
14008;DHT22;61651;45.508;12.232;2023-09-08T12:22:08;33.80;77.50
14008;DHT22;61651;45.508;12.232;2023-09-08T12:25:12;34.00;79.20
14008;DHT22;61651;45.508;12.232;2023-09-08T12:28:16;34.20;77.70
14008;DHT22;61651;45.508;12.232;2023-09-08T12:31:18;34.40;76.20
14008;DHT22;61651;45.508;12.232;2023-09-08T12:34:22;34.40;77.20
14008;DHT22;61651;45.508;12.232;2023-09-08T12:37:25;34.40;77.50
14008;DHT22;61651;45.508;12.232;2023-09-08T12:40:29;34.60;77.00
14008;DHT22;61651;45.508;12.232;2023-09-08T12:43:31;34.70;77.50
14008;DHT22;61651;45.508;12.232;2023-09-08T12:46:34;34.70;73.70
14008;DHT22;61651;45.508;12.232;2023-09-08T12:49:36;34.70;74.90
14008;DHT22;61651;45.508;12.232;2023-09-08T12:52:39;34.90;77.00
14008;DHT22;61651;45.508;12.232;2023-09-08T12:55:41;35.00;76.60
14008;DHT22;61651;45.508;12.232;2023-09-08T12:58:43;35.10;75.50
14008;DHT22;61651;45.508;12.232;2023-09-08T13:01:45;35.30;77.20
14008;DHT22;61651;45.508;12.232;2023-09-08T13:04:47;35.50;73.80
14008;DHT22;61651;45.508;12.232;2023-09-08T13:07:51;35.60;75.50
14008;DHT22;61651;45.508;12.232;2023-09-08T13:10:53;35.30;75.50
14008;DHT22;61651;45.508;12.232;2023-09-08T13:13:55;35.30;74.80
14008;DHT22;61651;45.508;12.232;2023-09-08T13:16:57;35.50;75.00
14008;DHT22;61651;45.508;12.232;2023-09-08T13:19:59;35.80;75.10
14008;DHT22;61651;45.508;12.232;2023-09-08T13:23:02;36.00;74.00
14008;DHT22;61651;45.508;12.232;2023-09-08T13:26:04;36.20;73.70
14008;DHT22;61651;45.508;12.232;2023-09-08T13:29:06;36.40;73.50
14008;DHT22;61651;45.508;12.232;2023-09-08T13:32:08;36.20;68.70
14008;DHT22;61651;45.508;12.232;2023-09-08T13:35:10;35.80;70.10
14008;DHT22;61651;45.508;12.232;2023-09-08T13:38:14;36.40;69.90
14008;DHT22;61651;45.508;12.232;2023-09-08T13:41:16;37.40;71.00
14008;DHT22;61651;45.508;12.232;2023-09-08T13:44:19;37.90;69.60
14008;DHT22;61651;45.508;12.232;2023-09-08T13:47:21;38.10;67.60
14008;DHT22;61651;45.508;12.232;2023-09-08T13:50:23;38.30;69.70
14008;DHT22;61651;45.508;12.232;2023-09-08T13:53:27;38.30;68.70
14008;DHT22;61651;45.508;12.232;2023-09-08T13:56:29;38.40;67.70
14008;DHT22;61651;45.508;12.232;2023-09-08T13:59:31;38.40;68.00
14008;DHT22;61651;45.508;12.232;2023-09-08T14:02:33;38.30;66.30
14008;DHT22;61651;45.508;12.232;2023-09-08T14:05:35;38.50;68.10
14008;DHT22;61651;45.508;12.232;2023-09-08T14:08:38;38.60;67.40
14008;DHT22;61651;45.508;12.232;2023-09-08T14:11:41;38.80;67.80
14008;DHT22;61651;45.508;12.232;2023-09-08T14:14:43;38.90;67.30
14008;DHT22;61651;45.508;12.232;2023-09-08T14:17:45;39.10;65.10
14008;DHT22;61651;45.508;12.232;2023-09-08T14:20:47;39.10;65.00
14008;DHT22;61651;45.508;12.232;2023-09-08T14:23:50;38.60;65.70
14008;DHT22;61651;45.508;12.232;2023-09-08T14:26:52;38.70;65.70
14008;DHT22;61651;45.508;12.232;2023-09-08T14:29:54;38.70;66.50
14008;DHT22;61651;45.508;12.232;2023-09-08T14:32:56;38.80;65.50
14008;DHT22;61651;45.508;12.232;2023-09-08T14:35:58;39.10;66.30
14008;DHT22;61651;45.508;12.232;2023-09-08T14:39:01;39.10;65.00
14008;DHT22;61651;45.508;12.232;2023-09-08T14:42:04;39.00;66.00
14008;DHT22;61651;45.508;12.232;2023-09-08T14:45:07;39.00;65.00
14008;DHT22;61651;45.508;12.232;2023-09-08T14:48:09;38.90;65.00
14008;DHT22;61651;45.508;12.232;2023-09-08T14:51:12;38.90;64.50
14008;DHT22;61651;45.508;12.232;2023-09-08T14:54:15;38.90;65.00
14008;DHT22;61651;45.508;12.232;2023-09-08T14:57:17;38.80;65.60
14008;DHT22;61651;45.508;12.232;2023-09-08T15:00:19;38.70;65.20
14008;DHT22;61651;45.508;12.232;2023-09-08T15:03:23;38.70;65.00
14008;DHT22;61651;45.508;12.232;2023-09-08T15:06:25;38.70;64.00
14008;DHT22;61651;45.508;12.232;2023-09-08T15:09:28;38.60;64.00
14008;DHT22;61651;45.508;12.232;2023-09-08T15:12:31;38.50;64.40
14008;DHT22;61651;45.508;12.232;2023-09-08T15:15:33;38.40;64.60
14008;DHT22;61651;45.508;12.232;2023-09-08T15:18:35;38.30;64.90
14008;DHT22;61651;45.508;12.232;2023-09-08T15:21:37;38.00;63.80
14008;DHT22;61651;45.508;12.232;2023-09-08T15:24:40;38.00;64.40
14008;DHT22;61651;45.508;12.232;2023-09-08T15:27:42;38.10;64.50
14008;DHT22;61651;45.508;12.232;2023-09-08T15:30:47;38.00;64.80
14008;DHT22;61651;45.508;12.232;2023-09-08T15:33:49;37.80;63.10
14008;DHT22;61651;45.508;12.232;2023-09-08T15:36:52;37.80;64.10
14008;DHT22;61651;45.508;12.232;2023-09-08T15:39:55;37.70;62.90
14008;DHT22;61651;45.508;12.232;2023-09-08T15:42:57;37.60;65.00
14008;DHT22;61651;45.508;12.232;2023-09-08T15:45:59;37.40;65.60
14008;DHT22;61651;45.508;12.232;2023-09-08T15:49:21;37.20;65.50
14008;DHT22;61651;45.508;12.232;2023-09-08T15:52:23;36.80;66.60
14008;DHT22;61651;45.508;12.232;2023-09-08T15:55:26;36.30;66.30
14008;DHT22;61651;45.508;12.232;2023-09-08T15:58:28;36.10;67.10
14008;DHT22;61651;45.508;12.232;2023-09-08T16:01:30;35.50;67.40
14008;DHT22;61651;45.508;12.232;2023-09-08T16:04:32;35.40;68.00
14008;DHT22;61651;45.508;12.232;2023-09-08T16:07:34;35.20;68.70
14008;DHT22;61651;45.508;12.232;2023-09-08T16:10:38;34.90;68.60
14008;DHT22;61651;45.508;12.232;2023-09-08T16:13:40;34.60;68.70
14008;DHT22;61651;45.508;12.232;2023-09-08T16:16:42;34.30;68.70
14008;DHT22;61651;45.508;12.232;2023-09-08T16:19:44;34.10;70.50
14008;DHT22;61651;45.508;12.232;2023-09-08T16:22:47;33.90;70.80
14008;DHT22;61651;45.508;12.232;2023-09-08T16:26:05;33.70;71.20
14008;DHT22;61651;45.508;12.232;2023-09-08T16:29:07;33.40;71.80
14008;DHT22;61651;45.508;12.232;2023-09-08T16:32:33;33.10;71.20
14008;DHT22;61651;45.508;12.232;2023-09-08T16:35:35;32.90;72.00
14008;DHT22;61651;45.508;12.232;2023-09-08T16:38:39;32.70;71.70
14008;DHT22;61651;45.508;12.232;2023-09-08T16:41:42;32.60;72.30
14008;DHT22;61651;45.508;12.232;2023-09-08T16:44:44;32.40;72.80
14008;DHT22;61651;45.508;12.232;2023-09-08T16:47:46;32.30;73.50
14008;DHT22;61651;45.508;12.232;2023-09-08T16:50:48;32.20;73.00
14008;DHT22;61651;45.508;12.232;2023-09-08T16:53:50;32.10;73.70
14008;DHT22;61651;45.508;12.232;2023-09-08T16:56:53;32.00;73.90
14008;DHT22;61651;45.508;12.232;2023-09-08T16:59:55;31.80;73.30
14008;DHT22;61651;45.508;12.232;2023-09-08T17:02:57;31.70;73.60
14008;DHT22;61651;45.508;12.232;2023-09-08T17:05:59;31.70;74.20
14008;DHT22;61651;45.508;12.232;2023-09-08T17:09:08;31.60;74.60
14008;DHT22;61651;45.508;12.232;2023-09-08T17:12:11;31.40;74.10
14008;DHT22;61651;45.508;12.232;2023-09-08T17:15:13;31.40;74.60
14008;DHT22;61651;45.508;12.232;2023-09-08T17:18:15;31.30;74.50
14008;DHT22;61651;45.508;12.232;2023-09-08T17:21:18;31.20;74.50
14008;DHT22;61651;45.508;12.232;2023-09-08T17:24:20;31.10;74.90
14008;DHT22;61651;45.508;12.232;2023-09-08T17:27:23;31.00;75.20
14008;DHT22;61651;45.508;12.232;2023-09-08T17:30:25;30.90;75.30
14008;DHT22;61651;45.508;12.232;2023-09-08T17:33:27;30.80;75.80
14008;DHT22;61651;45.508;12.232;2023-09-08T17:36:29;30.60;76.50
14008;DHT22;61651;45.508;12.232;2023-09-08T17:39:33;30.40;76.70
14008;DHT22;61651;45.508;12.232;2023-09-08T17:42:37;30.30;77.00
14008;DHT22;61651;45.508;12.232;2023-09-08T17:45:39;30.20;77.90
14008;DHT22;61651;45.508;12.232;2023-09-08T17:48:41;30.10;79.10
14008;DHT22;61651;45.508;12.232;2023-09-08T17:51:43;29.90;79.30
14008;DHT22;61651;45.508;12.232;2023-09-08T17:54:45;29.80;79.80
14008;DHT22;61651;45.508;12.232;2023-09-08T17:57:48;29.70;79.80
14008;DHT22;61651;45.508;12.232;2023-09-08T18:00:50;29.60;80.50
14008;DHT22;61651;45.508;12.232;2023-09-08T18:03:52;29.40;80.70
14008;DHT22;61651;45.508;12.232;2023-09-08T18:06:54;29.40;81.70
14008;DHT22;61651;45.508;12.232;2023-09-08T18:09:56;29.20;81.40
14008;DHT22;61651;45.508;12.232;2023-09-08T18:12:59;29.10;81.70
14008;DHT22;61651;45.508;12.232;2023-09-08T18:16:02;29.00;82.10
14008;DHT22;61651;45.508;12.232;2023-09-08T18:19:04;29.00;82.90
14008;DHT22;61651;45.508;12.232;2023-09-08T18:22:06;28.80;82.90
14008;DHT22;61651;45.508;12.232;2023-09-08T18:25:08;28.70;83.60
14008;DHT22;61651;45.508;12.232;2023-09-08T18:28:13;28.60;83.80
14008;DHT22;61651;45.508;12.232;2023-09-08T18:31:15;28.60;84.50
14008;DHT22;61651;45.508;12.232;2023-09-08T18:34:17;28.50;84.90
14008;DHT22;61651;45.508;12.232;2023-09-08T18:37:34;28.50;85.40
14008;DHT22;61651;45.508;12.232;2023-09-08T18:40:36;28.40;86.20
14008;DHT22;61651;45.508;12.232;2023-09-08T18:43:45;28.30;86.40
14008;DHT22;61651;45.508;12.232;2023-09-08T18:46:47;28.20;86.80
14008;DHT22;61651;45.508;12.232;2023-09-08T18:49:48;28.10;87.10
14008;DHT22;61651;45.508;12.232;2023-09-08T18:52:50;28.00;87.50
14008;DHT22;61651;45.508;12.232;2023-09-08T18:55:55;28.00;87.80